createdAt,value
2022-08-27T00:01:55.357Z,76286.41
2022-08-27T00:04:21.934Z,76286.41
2022-08-27T00:06:48.434Z,76286.41
2022-08-27T00:09:14.943Z,76286.41
2022-08-27T00:11:42.263Z,76286.41
2022-08-27T00:14:08.726Z,76282.41
2022-08-27T00:16:35.245Z,76282.41
2022-08-27T00:19:01.761Z,76286.41
2022-08-27T00:21:28.186Z,76282.41
2022-08-27T00:23:54.637Z,76286.41
2022-08-27T00:26:21.085Z,76286.41
2022-08-27T00:28:47.954Z,76290.41
2022-08-27T00:31:14.673Z,76294.41
2022-08-27T00:33:41.244Z,76292.41
2022-08-27T00:36:08.026Z,76296.41
2022-08-27T00:38:35.094Z,76292.41
2022-08-27T00:41:01.535Z,76294.41
2022-08-27T00:43:31.781Z,76294.41
2022-08-27T00:46:03.513Z,76290.41
2022-08-27T00:48:32.058Z,76290.41
2022-08-27T00:50:58.497Z,76286.41
2022-08-27T00:53:26.852Z,76282.41
2022-08-27T00:55:58.621Z,76282.41
2022-08-27T00:58:27.829Z,76282.41
2022-08-27T01:00:54.367Z,76286.41
2022-08-27T01:03:21.181Z,76286.41
2022-08-27T01:05:49.111Z,76282.41
2022-08-27T01:08:18.462Z,76284.41
2022-08-27T01:10:45.432Z,76282.41
2022-08-27T01:13:14.029Z,76278.41
2022-08-27T01:15:41.502Z,76274.41
2022-08-27T01:18:08.784Z,76270.41
2022-08-27T01:20:42.995Z,76266.41
2022-08-27T01:23:22.186Z,76268.41
2022-08-27T01:25:48.770Z,76262.41
2022-08-27T01:28:16.448Z,76266.41
2022-08-27T01:30:42.919Z,76268.41
2022-08-27T01:33:17.992Z,76268.41
2022-08-27T01:35:45.167Z,76270.41
2022-08-27T01:38:15.349Z,76270.41
2022-08-27T01:40:56.534Z,76274.41
2022-08-27T01:43:23.625Z,76278.41
2022-08-27T01:45:51.353Z,76282.41
2022-08-27T01:48:19.714Z,76280.41
2022-08-27T01:50:48.287Z,76282.41
2022-08-27T01:53:16.742Z,76282.41
2022-08-27T01:55:48.209Z,76286.41
2022-08-27T01:58:15.623Z,76290.41
2022-08-27T02:00:44.178Z,76286.41
2022-08-27T02:03:12.234Z,76292.41
2022-08-27T02:05:44.807Z,76298.44
2022-08-27T02:08:11.916Z,76306.44
2022-08-27T02:10:39.751Z,76308.44
2022-08-27T02:13:07.166Z,76310.44
2022-08-27T02:15:34.575Z,76306.44
2022-08-27T02:18:01.756Z,76310.44
2022-08-27T02:20:29.283Z,76316.44
2022-08-27T02:22:56.026Z,76314.44
2022-08-27T02:25:22.627Z,76302.44
2022-08-27T02:27:50.335Z,76302.44
2022-08-27T02:30:19.773Z,76288.41
2022-08-27T02:32:47.313Z,76278.41
2022-08-27T02:35:14.805Z,76266.41
2022-08-27T02:37:41.881Z,76262.41
2022-08-27T02:40:09.614Z,76262.41
2022-08-27T02:42:36.117Z,76254.41
2022-08-27T02:45:02.882Z,76250.41
2022-08-27T02:47:29.330Z,76250.41
2022-08-27T02:49:55.854Z,76256.41
2022-08-27T02:52:25.101Z,76256.41
2022-08-27T02:54:51.802Z,76258.41
2022-08-27T02:57:18.266Z,76258.41
2022-08-27T02:59:45.238Z,76256.41
2022-08-27T03:02:11.897Z,76258.41
2022-08-27T03:04:38.495Z,76258.41
2022-08-27T03:07:04.952Z,76266.41
2022-08-27T03:09:31.419Z,76258.41
2022-08-27T03:11:58.335Z,76266.41
2022-08-27T03:14:24.725Z,76266.41
2022-08-27T03:16:51.190Z,76266.41
2022-08-27T03:19:23.796Z,76262.41
2022-08-27T03:21:54.559Z,76262.41
2022-08-27T03:24:21.359Z,76262.41
2022-08-27T03:26:52.933Z,76258.41
2022-08-27T03:29:20.749Z,76258.41
2022-08-27T03:31:47.233Z,76258.41
2022-08-27T03:34:13.780Z,76256.41
2022-08-27T03:36:46.877Z,76258.41
2022-08-27T03:39:13.613Z,76254.41
2022-08-27T03:41:54.093Z,76250.41
2022-08-27T03:44:22.154Z,76254.41
2022-08-27T03:46:48.981Z,76250.41
2022-08-27T03:49:15.477Z,76250.41
2022-08-27T03:51:46.943Z,76252.41
2022-08-27T03:54:13.440Z,76248.41
2022-08-27T03:56:41.623Z,76250.41
2022-08-27T03:59:08.331Z,76248.41
2022-08-27T04:01:34.973Z,76254.41
2022-08-27T04:04:01.446Z,76252.41
2022-08-27T04:06:28.347Z,76252.41
2022-08-27T04:08:54.801Z,76256.41
2022-08-27T04:11:22.203Z,76256.41
2022-08-27T04:13:48.755Z,76254.41
2022-08-27T04:16:15.389Z,76254.41
2022-08-27T04:18:41.886Z,76258.41
2022-08-27T04:21:09.290Z,76254.41
2022-08-27T04:23:35.678Z,76258.41
2022-08-27T04:26:05.347Z,76258.41
2022-08-27T04:28:35.251Z,76260.41
2022-08-27T04:31:05.171Z,76260.41
2022-08-27T04:33:32.534Z,76262.41
2022-08-27T04:36:00.075Z,76262.41
2022-08-27T04:38:26.640Z,76260.41
2022-08-27T04:41:11.490Z,76266.41
2022-08-27T04:43:38.066Z,76268.41
2022-08-27T04:46:04.695Z,76270.41
2022-08-27T04:48:31.221Z,76274.41
2022-08-27T04:50:57.759Z,76272.41
2022-08-27T04:53:24.293Z,76274.41
2022-08-27T04:55:52.778Z,76272.41
2022-08-27T04:58:21.003Z,76276.41
2022-08-27T05:00:48.977Z,76286.41
2022-08-27T05:03:16.597Z,76278.41
2022-08-27T05:05:43.656Z,76280.41
2022-08-27T05:08:13.221Z,76276.41
2022-08-27T05:10:43.941Z,76274.41
2022-08-27T05:13:10.633Z,76274.41
2022-08-27T05:15:37.241Z,76278.41
2022-08-27T05:18:04.384Z,76274.41
2022-08-27T05:20:31.405Z,76274.41
2022-08-27T05:22:57.867Z,76272.41
2022-08-27T05:25:25.000Z,76274.41
2022-08-27T05:27:51.471Z,76276.41
2022-08-27T05:30:18.383Z,76274.41
2022-08-27T05:32:45.022Z,76270.41
2022-08-27T05:35:15.155Z,76276.41
2022-08-27T05:37:42.919Z,76274.41
2022-08-27T05:40:09.837Z,76282.41
2022-08-27T05:42:36.359Z,76278.41
2022-08-27T05:45:02.827Z,76278.41
2022-08-27T05:47:29.366Z,76286.41
2022-08-27T05:49:55.874Z,76278.41
2022-08-27T05:52:22.393Z,76282.41
2022-08-27T05:54:48.951Z,76282.41
2022-08-27T05:57:15.457Z,76286.41
2022-08-27T06:00:00.380Z,76290.41
2022-08-27T06:02:27.154Z,76290.41
2022-08-27T06:04:53.938Z,76294.41
2022-08-27T06:07:20.779Z,76294.41
2022-08-27T06:09:47.316Z,76294.41
2022-08-27T06:12:13.771Z,76294.41
2022-08-27T06:14:40.554Z,76298.44
2022-08-27T06:17:07.015Z,76302.44
2022-08-27T06:19:34.889Z,76302.44
2022-08-27T06:22:10.508Z,76298.44
2022-08-27T06:24:39.435Z,76302.44
2022-08-27T06:27:06.158Z,76302.44
2022-08-27T06:29:35.267Z,76306.44
2022-08-27T06:32:01.935Z,76308.44
2022-08-27T06:34:28.423Z,76306.44
2022-08-27T06:36:55.115Z,76310.44
2022-08-27T06:39:21.684Z,76310.44
2022-08-27T06:41:50.319Z,76310.44
2022-08-27T06:44:16.779Z,76314.44
2022-08-27T06:46:43.526Z,76302.44
2022-08-27T06:49:10.639Z,76310.44
2022-08-27T06:51:38.271Z,76306.44
2022-08-27T06:54:08.133Z,76314.44
2022-08-27T06:56:34.928Z,76316.44
2022-08-27T06:59:04.017Z,76318.44
2022-08-27T07:01:33.997Z,76318.44
2022-08-27T07:04:02.210Z,76318.44
2022-08-27T07:06:29.658Z,76318.44
2022-08-27T07:08:57.230Z,76324.44
2022-08-27T07:11:23.876Z,76324.44
2022-08-27T07:13:50.646Z,76330.44
2022-08-27T07:16:19.216Z,76328.44
2022-08-27T07:18:49.204Z,76330.44
2022-08-27T07:21:15.589Z,76326.44
2022-08-27T07:23:42.320Z,76330.44
2022-08-27T07:26:12.611Z,76330.44
2022-08-27T07:28:39.950Z,76326.44
2022-08-27T07:31:09.166Z,76326.44
2022-08-27T07:33:39.515Z,76326.44
2022-08-27T07:36:09.055Z,76332.44
2022-08-27T07:38:36.615Z,76332.44
2022-08-27T07:41:06.842Z,76332.44
2022-08-27T07:43:51.875Z,76334.44
2022-08-27T07:46:23.733Z,76334.44
2022-08-27T07:48:50.659Z,76328.44
2022-08-27T07:51:18.498Z,76332.44
2022-08-27T07:53:46.045Z,76332.44
2022-08-27T07:56:13.204Z,76330.44
2022-08-27T07:58:40.252Z,76330.44
2022-08-27T08:01:07.310Z,76330.44
2022-08-27T08:03:33.873Z,76330.44
2022-08-27T08:06:11.495Z,76330.44
2022-08-27T08:08:40.978Z,76326.44
2022-08-27T08:11:11.499Z,76322.44
2022-08-27T08:13:37.979Z,76318.44
2022-08-27T08:16:05.186Z,76312.44
2022-08-27T08:18:32.356Z,76304.44
2022-08-27T08:21:00.080Z,76298.44
2022-08-27T08:23:27.063Z,76298.44
2022-08-27T08:25:55.289Z,76294.41
2022-08-27T08:28:21.835Z,76292.41
2022-08-27T08:30:48.416Z,76298.44
2022-08-27T08:33:15.082Z,76302.44
2022-08-27T08:35:41.608Z,76294.41
2022-08-27T08:38:08.495Z,76296.41
2022-08-27T08:40:55.465Z,76292.41
2022-08-27T08:43:28.223Z,76288.41
2022-08-27T08:45:56.397Z,76282.41
2022-08-27T08:48:23.994Z,76270.41
2022-08-27T08:50:50.459Z,76266.41
2022-08-27T08:53:40.359Z,76262.41
2022-08-27T08:56:17.923Z,76266.41
2022-08-27T08:58:47.758Z,76266.41
2022-08-27T09:01:15.948Z,76262.41
2022-08-27T09:03:47.355Z,76266.41
2022-08-27T09:06:26.683Z,76276.41
2022-08-27T09:08:53.133Z,76282.41
2022-08-27T09:11:35.338Z,76286.41
2022-08-27T09:14:13.370Z,76290.41
2022-08-27T09:16:40.165Z,76290.41
2022-08-27T09:19:06.894Z,76294.41
2022-08-27T09:21:49.546Z,76294.41
2022-08-27T09:24:24.035Z,76298.44
2022-08-27T09:26:51.151Z,76298.44
2022-08-27T09:29:20.977Z,76304.44
2022-08-27T09:31:58.111Z,76312.44
2022-08-27T09:34:25.673Z,76316.44
2022-08-27T09:36:54.373Z,76314.44
2022-08-27T09:39:26.208Z,76320.44
2022-08-27T09:41:52.768Z,76322.44
2022-08-27T09:44:20.776Z,76322.44
2022-08-27T09:46:54.462Z,76326.44
2022-08-27T09:49:21.058Z,76334.44
2022-08-27T09:51:48.048Z,76330.44
2022-08-27T09:54:38.052Z,76332.44
2022-08-27T09:57:05.272Z,76336.44
2022-08-27T09:59:36.143Z,76334.44
2022-08-27T10:02:06.600Z,76334.44
2022-08-27T10:04:50.400Z,76334.44
2022-08-27T10:07:24.185Z,76334.44
2022-08-27T10:09:58.665Z,76342.44
2022-08-27T10:12:29.318Z,76344.47
2022-08-27T10:14:59.007Z,76340.44
2022-08-27T10:17:40.790Z,76338.44
2022-08-27T10:20:07.413Z,76334.44
2022-08-27T10:22:52.782Z,76338.44
2022-08-27T10:25:58.576Z,76342.44
2022-08-27T10:28:34.477Z,76346.47
2022-08-27T10:31:13.937Z,76344.47
2022-08-27T10:33:50.598Z,76338.44
2022-08-27T10:36:33.261Z,76346.47
2022-08-27T10:38:59.976Z,76342.44
2022-08-27T10:41:29.033Z,76346.47
2022-08-27T10:44:13.643Z,76346.47
2022-08-27T10:46:58.982Z,76348.47
2022-08-27T10:49:31.347Z,76350.47
2022-08-27T10:52:08.227Z,76350.47
2022-08-27T10:54:46.285Z,76354.47
2022-08-27T10:57:53.899Z,76350.47
2022-08-27T11:00:20.544Z,76350.47
2022-08-27T11:03:09.087Z,76350.47
2022-08-27T11:05:45.004Z,76350.47
2022-08-27T11:08:15.744Z,76348.47
2022-08-27T11:10:45.832Z,76350.47
2022-08-27T11:13:14.845Z,76350.47
2022-08-27T11:15:44.134Z,76352.47
2022-08-27T11:18:16.252Z,76352.47
2022-08-27T11:20:51.006Z,76350.47
2022-08-27T11:23:19.696Z,76350.47
2022-08-27T11:25:53.876Z,76350.47
2022-08-27T11:28:30.286Z,76352.47
2022-08-27T11:31:16.134Z,76354.47
2022-08-27T11:33:46.613Z,76356.47
2022-08-27T11:36:16.301Z,76354.47
2022-08-27T11:38:53.757Z,76356.47
2022-08-27T11:41:45.113Z,76356.47
2022-08-27T11:44:13.762Z,76354.47
2022-08-27T11:46:49.124Z,76360.47
2022-08-27T11:49:35.894Z,76354.47
2022-08-27T11:52:04.665Z,76360.47
2022-08-27T11:54:42.794Z,76358.47
2022-08-27T11:57:14.491Z,76360.47
2022-08-27T11:59:43.605Z,76358.47
2022-08-27T12:02:12.471Z,76362.47
2022-08-27T12:04:41.138Z,76358.47
2022-08-27T12:07:13.948Z,76356.47
2022-08-27T12:09:55.748Z,76358.47
2022-08-27T12:12:30.296Z,76354.47
2022-08-27T12:15:14.994Z,76352.47
2022-08-27T12:17:46.452Z,76352.47
2022-08-27T12:20:27.782Z,76350.47
2022-08-27T12:23:26.052Z,76352.47
2022-08-27T12:26:00.980Z,76350.47
2022-08-27T12:28:28.065Z,76350.47
2022-08-27T12:30:55.049Z,76350.47
2022-08-27T12:33:21.828Z,76350.47
2022-08-27T12:35:50.622Z,76350.47
2022-08-27T12:38:23.707Z,76346.47
2022-08-27T12:40:52.047Z,76350.47
2022-08-27T12:43:26.501Z,76350.47
2022-08-27T12:46:05.099Z,76346.47
2022-08-27T12:48:34.378Z,76346.47
2022-08-27T12:51:02.883Z,76344.47
2022-08-27T12:53:43.642Z,76346.47
2022-08-27T12:56:29.413Z,76344.47
2022-08-27T12:58:55.853Z,76340.44
2022-08-27T13:01:28.532Z,76338.44
2022-08-27T13:03:57.806Z,76342.44
2022-08-27T13:06:33.328Z,76338.44
2022-08-27T13:09:01.398Z,76338.44
2022-08-27T13:11:32.750Z,76332.44
2022-08-27T13:14:16.561Z,76338.44
2022-08-27T13:16:51.594Z,76338.44
2022-08-27T13:19:25.341Z,76342.44
2022-08-27T13:21:52.696Z,76338.44
2022-08-27T13:24:21.058Z,76336.44
2022-08-27T13:26:49.868Z,76330.44
2022-08-27T13:29:16.503Z,76330.44
2022-08-27T13:31:43.777Z,76334.44
2022-08-27T13:34:14.891Z,76318.44
2022-08-27T13:36:54.320Z,76318.44
2022-08-27T13:39:20.983Z,76318.44
2022-08-27T13:41:48.554Z,76312.44
2022-08-27T13:44:19.426Z,76308.44
2022-08-27T13:46:50.990Z,76310.44
2022-08-27T13:49:22.053Z,76306.44
2022-08-27T13:51:49.218Z,76302.44
2022-08-27T13:54:17.455Z,76300.44
2022-08-27T13:56:46.670Z,76298.44
2022-08-27T13:59:19.677Z,76294.41
2022-08-27T14:02:00.366Z,76298.44
2022-08-27T14:04:47.149Z,76292.41
2022-08-27T14:07:17.546Z,76290.41
2022-08-27T14:09:53.939Z,76290.41
2022-08-27T14:12:38.379Z,76292.41
2022-08-27T14:15:20.799Z,76290.41
2022-08-27T14:17:47.647Z,76286.41
2022-08-27T14:20:15.935Z,76286.41
2022-08-27T14:22:43.081Z,76290.41
2022-08-27T14:25:09.935Z,76284.41
2022-08-27T14:27:36.831Z,76284.41
2022-08-27T14:30:04.770Z,76276.41
2022-08-27T14:32:32.703Z,76270.41
2022-08-27T14:34:59.322Z,76258.41
2022-08-27T14:37:25.972Z,76254.41
2022-08-27T14:39:52.512Z,76246.41
2022-08-27T14:42:20.071Z,76242.38
2022-08-27T14:44:46.705Z,76242.38
2022-08-27T14:47:14.403Z,76242.38
2022-08-27T14:49:43.986Z,76246.41
2022-08-27T14:52:11.250Z,76250.41
2022-08-27T14:54:38.649Z,76250.41
2022-08-27T14:57:06.006Z,76252.41
2022-08-27T14:59:32.871Z,76254.41
2022-08-27T15:02:01.572Z,76254.41
2022-08-27T15:04:28.934Z,76258.41
2022-08-27T15:06:55.951Z,76256.41
2022-08-27T15:09:22.488Z,76258.41
2022-08-27T15:11:49.283Z,76266.41
2022-08-27T15:14:20.915Z,76262.41
2022-08-27T15:16:47.408Z,76270.41
2022-08-27T15:19:15.450Z,76268.41
2022-08-27T15:21:44.674Z,76268.41
2022-08-27T15:24:15.673Z,76264.41
2022-08-27T15:26:42.185Z,76266.41
2022-08-27T15:29:08.607Z,76262.41
2022-08-27T15:31:35.517Z,76266.41
2022-08-27T15:34:02.311Z,76262.41
2022-08-27T15:36:28.735Z,76270.41
2022-08-27T15:38:56.343Z,76274.41
2022-08-27T15:41:25.214Z,76272.41
2022-08-27T15:43:55.119Z,76274.41
2022-08-27T15:46:22.285Z,76274.41
2022-08-27T15:48:48.910Z,76274.41
2022-08-27T15:51:26.346Z,76274.41
2022-08-27T15:53:52.807Z,76274.41
2022-08-27T15:56:20.159Z,76278.41
2022-08-27T15:58:46.754Z,76278.41
2022-08-27T16:01:14.809Z,76274.41
2022-08-27T16:03:42.137Z,76276.41
2022-08-27T16:06:08.946Z,76284.41
2022-08-27T16:08:36.799Z,76282.41
2022-08-27T16:11:08.404Z,76282.41
2022-08-27T16:13:34.835Z,76282.41
2022-08-27T16:16:02.075Z,76282.41
2022-08-27T16:18:30.235Z,76282.41
2022-08-27T16:20:58.330Z,76282.41
2022-08-27T16:23:26.374Z,76280.41
2022-08-27T16:25:53.722Z,76282.41
2022-08-27T16:28:20.243Z,76282.41
2022-08-27T16:30:47.165Z,76284.41
2022-08-27T16:33:14.368Z,76288.41
2022-08-27T16:35:42.472Z,76290.41
2022-08-27T16:38:09.224Z,76286.41
2022-08-27T16:40:40.720Z,76286.41
2022-08-27T16:43:10.091Z,76280.41
2022-08-27T16:45:36.603Z,76280.41
2022-08-27T16:48:21.532Z,76284.41
2022-08-27T16:50:47.926Z,76286.41
2022-08-27T16:53:15.309Z,76294.41
2022-08-27T16:55:43.012Z,76294.41
2022-08-27T16:58:14.339Z,76298.44
2022-08-27T17:00:40.851Z,76294.41
2022-08-27T17:03:07.668Z,76302.44
2022-08-27T17:05:35.043Z,76304.44
2022-08-27T17:08:02.367Z,76310.44
2022-08-27T17:10:32.595Z,76314.44
2022-08-27T17:12:59.401Z,76314.44
2022-08-27T17:15:25.896Z,76314.44
2022-08-27T17:17:52.370Z,76318.44
2022-08-27T17:20:18.889Z,76318.44
2022-08-27T17:22:45.444Z,76320.44
2022-08-27T17:25:11.903Z,76318.44
2022-08-27T17:27:38.307Z,76314.44
2022-08-27T17:30:05.926Z,76322.44
2022-08-27T17:32:35.110Z,76322.44
2022-08-27T17:35:05.874Z,76330.44
2022-08-27T17:37:33.077Z,76326.44
2022-08-27T17:40:00.057Z,76334.44
2022-08-27T17:42:26.642Z,76334.44
2022-08-27T17:44:53.052Z,76340.44
2022-08-27T17:47:20.753Z,76342.44
2022-08-27T17:49:47.268Z,76344.47
2022-08-27T17:52:15.152Z,76346.47
2022-08-27T17:54:46.053Z,76346.47
2022-08-27T17:57:16.676Z,76348.47
2022-08-27T17:59:43.456Z,76346.47
2022-08-27T18:02:12.095Z,76350.47
2022-08-27T18:04:38.574Z,76354.47
2022-08-27T18:07:05.058Z,76352.47
2022-08-27T18:09:31.460Z,76354.47
2022-08-27T18:11:57.886Z,76358.47
2022-08-27T18:14:24.285Z,76362.47
2022-08-27T18:16:50.827Z,76362.47
2022-08-27T18:19:17.304Z,76366.47
2022-08-27T18:21:46.365Z,76366.47
2022-08-27T18:24:13.604Z,76366.47
2022-08-27T18:26:40.103Z,76374.47
2022-08-27T18:29:06.559Z,76374.47
2022-08-27T18:31:33.081Z,76374.47
2022-08-27T18:34:00.111Z,76382.47
2022-08-27T18:36:27.399Z,76382.47
2022-08-27T18:38:53.854Z,76388.47
2022-08-27T18:41:20.460Z,76378.47
2022-08-27T18:43:47.531Z,76382.47
2022-08-27T18:46:14.201Z,76388.47
2022-08-27T18:48:41.051Z,76386.47
2022-08-27T18:51:09.109Z,76388.47
2022-08-27T18:53:36.783Z,76390.47
2022-08-27T18:56:04.467Z,76386.47
2022-08-27T18:58:30.878Z,76388.47
2022-08-27T19:00:58.962Z,76396.50
2022-08-27T19:03:31.301Z,76398.50
2022-08-27T19:05:58.040Z,76394.50
2022-08-27T19:08:28.047Z,76402.50
2022-08-27T19:10:55.661Z,76406.50
2022-08-27T19:13:22.429Z,76410.50
2022-08-27T19:15:54.034Z,76406.50
2022-08-27T19:18:21.701Z,76406.50
2022-08-27T19:20:48.117Z,76402.50
2022-08-27T19:23:14.730Z,76406.50
2022-08-27T19:25:50.471Z,76406.50
2022-08-27T19:28:22.857Z,76406.50
2022-08-27T19:30:49.338Z,76414.50
2022-08-27T19:33:15.740Z,76416.50
2022-08-27T19:35:42.636Z,76414.50
2022-08-27T19:38:11.711Z,76414.50
2022-08-27T19:40:38.313Z,76410.50
2022-08-27T19:43:05.107Z,76406.50
2022-08-27T19:45:31.742Z,76412.50
2022-08-27T19:47:58.980Z,76406.50
2022-08-27T19:50:25.433Z,76416.50
2022-08-27T19:52:52.397Z,76414.50
2022-08-27T19:55:19.227Z,76418.50
2022-08-27T19:57:45.631Z,76412.50
2022-08-27T20:00:14.023Z,76416.50
2022-08-27T20:02:40.423Z,76418.50
2022-08-27T20:05:18.036Z,76418.50
2022-08-27T20:07:45.650Z,76422.50
2022-08-27T20:10:12.119Z,76424.50
2022-08-27T20:12:38.525Z,76430.50
2022-08-27T20:15:06.245Z,76434.50
2022-08-27T20:17:32.914Z,76426.50
2022-08-27T20:19:59.926Z,76430.50
2022-08-27T20:22:26.951Z,76430.50
2022-08-27T20:24:53.304Z,76426.50
2022-08-27T20:27:19.816Z,76422.50
2022-08-27T20:29:46.246Z,76416.50
2022-08-27T20:32:13.244Z,76422.50
2022-08-27T20:34:39.988Z,76420.50
2022-08-27T20:37:06.361Z,76422.50
2022-08-27T20:39:32.811Z,76420.50
2022-08-27T20:41:59.584Z,76422.50
2022-08-27T20:44:26.030Z,76424.50
2022-08-27T20:46:55.004Z,76426.50
2022-08-27T20:49:21.857Z,76426.50
2022-08-27T20:52:02.329Z,76426.50
2022-08-27T20:54:31.295Z,76430.50
2022-08-27T20:56:57.904Z,76426.50
2022-08-27T20:59:42.756Z,76424.50
2022-08-27T21:02:10.606Z,76426.50
2022-08-27T21:04:43.484Z,76432.50
2022-08-27T21:07:09.886Z,76430.50
2022-08-27T21:09:36.319Z,76436.53
2022-08-27T21:12:22.719Z,76428.50
2022-08-27T21:14:49.767Z,76430.50
2022-08-27T21:17:21.169Z,76428.50
2022-08-27T21:19:47.555Z,76430.50
2022-08-27T21:22:13.895Z,76428.50
2022-08-27T21:24:40.296Z,76434.50
2022-08-27T21:27:06.680Z,76428.50
2022-08-27T21:29:33.831Z,76434.50
2022-08-27T21:32:00.238Z,76426.50
2022-08-27T21:34:28.206Z,76430.50
2022-08-27T21:36:54.632Z,76428.50
2022-08-27T21:39:21.049Z,76426.50
2022-08-27T21:41:47.491Z,76430.50
2022-08-27T21:44:14.475Z,76430.50
2022-08-27T21:46:41.337Z,76432.50
2022-08-27T21:49:08.085Z,76434.50
2022-08-27T21:51:34.498Z,76430.50
2022-08-27T21:54:00.917Z,76424.50
2022-08-27T21:56:27.418Z,76432.50
2022-08-27T21:58:53.884Z,76430.50
2022-08-27T22:01:20.295Z,76430.50
2022-08-27T22:03:50.790Z,76430.50
2022-08-27T22:06:17.930Z,76430.50
2022-08-27T22:08:44.421Z,76430.50
2022-08-27T22:11:11.664Z,76434.50
2022-08-27T22:13:38.216Z,76430.50
2022-08-27T22:16:04.975Z,76432.50
2022-08-27T22:18:31.507Z,76436.53
2022-08-27T22:20:58.932Z,76438.53
2022-08-27T22:23:25.318Z,76434.50
2022-08-27T22:25:51.900Z,76434.50
2022-08-27T22:28:18.435Z,76436.53
2022-08-27T22:30:45.414Z,76440.53
2022-08-27T22:33:12.515Z,76434.50
2022-08-27T22:35:39.072Z,76440.53
2022-08-27T22:38:05.596Z,76440.53
2022-08-27T22:40:33.685Z,76438.53
2022-08-27T22:43:00.423Z,76436.53
2022-08-27T22:45:27.231Z,76438.53
2022-08-27T22:47:53.839Z,76440.53
2022-08-27T22:50:20.714Z,76442.53
2022-08-27T22:52:47.863Z,76440.53
2022-08-27T22:55:15.467Z,76434.50
2022-08-27T22:57:41.939Z,76442.53
2022-08-27T23:00:12.854Z,76440.53
2022-08-27T23:02:39.705Z,76438.53
2022-08-27T23:05:06.987Z,76442.53
2022-08-27T23:07:33.663Z,76442.53
2022-08-27T23:10:00.132Z,76442.53
2022-08-27T23:12:26.598Z,76442.53
2022-08-27T23:14:53.043Z,76444.53
2022-08-27T23:17:19.825Z,76446.53
2022-08-27T23:19:46.318Z,76442.53
2022-08-27T23:22:12.824Z,76440.53
2022-08-27T23:24:59.271Z,76442.53
2022-08-27T23:27:31.572Z,76440.53
2022-08-27T23:29:58.579Z,76434.50
2022-08-27T23:32:25.139Z,76438.53
2022-08-27T23:34:51.607Z,76444.53
2022-08-27T23:37:18.452Z,76444.53
2022-08-27T23:39:45.071Z,76442.53
2022-08-27T23:42:12.122Z,76446.53
2022-08-27T23:44:39.478Z,76442.53
2022-08-27T23:47:05.876Z,76446.53
2022-08-27T23:49:32.360Z,76446.53
2022-08-27T23:51:58.865Z,76448.53
2022-08-27T23:54:25.341Z,76454.53
2022-08-27T23:56:51.742Z,76454.53
2022-08-27T23:59:18.119Z,76450.53
